»·PEaware :: QXE2486 KMRY-KSBA

QXE2486 :: KMRY-KSBA

FLIGHT INFORMATION

Flight Status: Arrived
Operator:
Horizon Air
More flights by this operator :: More flights under this callsign
Pilot: Walter H. (552)
Aircraft: DEHAVILLAND DASH 8 400
(DH8D)
More flights by this aircraft type
Origin: KMRY Monterey Peninsula
United States
Destination: KSBA Santa Barbara Mun
United States
More flights between these airports :: More routes between these airports
Route: +MRY4 SNS V25 RZS
File this flight plan on PilotEdge
Remarks:
Altitude:
(Current/Filed)
21,000ft
Speed:
(Current/Filed)
320kts
Departed: 16-Jan-19 08:21 AM
Arrived: 16-Jan-19 09:09 AM
Distance/Time
Traveled:
163nm/0:47
Distance/Time
To Go:
Arrived

Flight Plot

Page will automatically refresh every two minutes.

Flight plan parsing failed; only flown route is shown


Map Options




Map Legend


Flown Route
Filed Route
Departure Airport
Arrival Airport
Navaid (VOR, NDB)
Fix

Horizontal Profiles

Position Reports

Time Latitude Longitude Heading Altitude Ground
Speed
16-Jan-19 07:51 36.588088 -121.851264 238 212ft 0kts
16-Jan-19 07:52 36.588088 -121.851264 238 212ft 0kts
16-Jan-19 07:53 36.588088 -121.851264 238 212ft 0kts
16-Jan-19 07:54 36.588088 -121.851264 238 212ft 0kts
16-Jan-19 07:55 36.588013 -121.839489 291 212ft 0kts
16-Jan-19 07:56 36.588013 -121.839489 291 212ft 0kts
16-Jan-19 07:57 36.588013 -121.839489 291 212ft 0kts
16-Jan-19 07:58 36.588013 -121.839489 291 212ft 0kts
16-Jan-19 07:59 36.588013 -121.839489 291 212ft 0kts
16-Jan-19 08:00 36.588013 -121.839489 291 212ft 0kts
16-Jan-19 08:01 36.588013 -121.839489 291 212ft 0kts
16-Jan-19 08:02 36.588013 -121.839489 291 212ft 0kts
16-Jan-19 08:03 36.588013 -121.839489 291 212ft 0kts
16-Jan-19 08:04 36.588013 -121.839489 291 212ft 0kts
16-Jan-19 08:05 36.588013 -121.839489 291 212ft 0kts
16-Jan-19 08:06 36.588013 -121.839489 291 212ft 0kts
16-Jan-19 08:07 36.588013 -121.839489 291 212ft 0kts
16-Jan-19 08:08 36.588013 -121.839489 291 212ft 0kts
16-Jan-19 08:09 36.588013 -121.839489 291 212ft 0kts
16-Jan-19 08:10 36.588013 -121.839489 291 212ft 0kts
16-Jan-19 08:11 36.588013 -121.839489 291 212ft 0kts
16-Jan-19 08:12 36.588013 -121.839489 291 212ft 0kts
16-Jan-19 08:13 36.588013 -121.839489 291 212ft 0kts
16-Jan-19 08:14 36.586905 -121.838300 112 212ft 15kts
16-Jan-19 08:15 36.585024 -121.835596 204 212ft 5kts
16-Jan-19 08:16 36.582907 -121.835016 102 212ft 0kts
16-Jan-19 08:17 36.582907 -121.835016 102 212ft 0kts
16-Jan-19 08:18 36.582907 -121.835016 102 212ft 0kts
16-Jan-19 08:19 36.583128 -121.833355 4 212ft 16kts
16-Jan-19 08:20 36.592745 -121.862617 292 1081ft 168kts
16-Jan-19 08:21 36.630622 -121.897042 338 3427ft 195kts
16-Jan-19 08:22 36.682230 -121.918650 339 5775ft 197kts
16-Jan-19 08:23 36.735233 -121.938648 339 8219ft 206kts
16-Jan-19 08:24 36.783419 -121.913857 82 11127ft 220kts
16-Jan-19 08:25 36.764971 -121.845786 128 13629ft 219kts
16-Jan-19 08:26 36.736973 -121.778192 128 15718ft 243kts
16-Jan-19 08:27 36.705642 -121.703257 128 17615ft 258kts
16-Jan-19 08:28 36.672227 -121.623544 128 19381ft 268kts
16-Jan-19 08:29 36.624287 -121.563095 153 20843ft 259kts
16-Jan-19 08:30 36.569693 -121.510123 151 21043ft 304kts
16-Jan-19 08:31 36.505980 -121.446055 149 21051ft 334kts
16-Jan-19 08:32 36.441103 -121.381209 149 21052ft 349kts
16-Jan-19 08:33 36.374320 -121.314909 149 21057ft 357kts
16-Jan-19 08:34 36.304631 -121.245933 149 21063ft 361kts
16-Jan-19 08:35 36.232800 -121.174877 149 21075ft 363kts
16-Jan-19 08:36 36.159752 -121.102884 149 21092ft 365kts
16-Jan-19 08:37 36.084188 -121.028600 149 21103ft 366kts
16-Jan-19 08:38 36.007414 -120.953274 149 21112ft 366kts
16-Jan-19 08:39 35.930059 -120.878098 149 21118ft 366kts
16-Jan-19 08:40 35.851527 -120.806286 154 21123ft 362kts
16-Jan-19 08:41 35.773940 -120.745128 155 21126ft 363kts
16-Jan-19 08:42 35.694150 -120.682566 155 21127ft 363kts
16-Jan-19 08:43 35.610195 -120.617031 155 20940ft 365kts
16-Jan-19 08:44 35.528188 -120.552888 154 19694ft 357kts
16-Jan-19 08:45 35.451640 -120.493128 154 18679ft 351kts
16-Jan-19 08:46 35.375256 -120.433759 155 17651ft 346kts
16-Jan-19 08:47 35.296347 -120.372884 154 16578ft 342kts
16-Jan-19 08:48 35.217434 -120.312119 154 15497ft 339kts
16-Jan-19 08:49 35.139666 -120.252384 154 14420ft 336kts
16-Jan-19 08:50 35.061941 -120.192782 153 13335ft 333kts
16-Jan-19 08:51 34.986016 -120.134690 153 12268ft 331kts
16-Jan-19 08:52 34.912679 -120.078733 153 11218ft 317kts
16-Jan-19 08:53 34.843925 -120.026167 152 10789ft 296kts
16-Jan-19 08:54 34.775935 -119.974603 152 9825ft 300kts
16-Jan-19 08:55 34.708857 -119.923507 151 8829ft 271kts
16-Jan-19 08:56 34.645938 -119.890367 195 7002ft 239kts
16-Jan-19 08:57 34.599562 -119.940236 224 5109ft 236kts
16-Jan-19 08:58 34.554622 -119.998860 224 5002ft 242kts
16-Jan-19 08:59 34.508496 -120.057137 224 4984ft 234kts
16-Jan-19 09:00 34.472613 -120.105229 224 4188ft 189kts
16-Jan-19 09:02 34.433861 -120.140855 178 3343ft 175kts
16-Jan-19 09:03 34.418680 -120.098343 88 2860ft 139kts
16-Jan-19 09:04 34.422335 -120.050843 91 2865ft 136kts
16-Jan-19 09:05 34.424105 -120.005021 92 2483ft 141kts
16-Jan-19 09:06 34.424934 -119.956548 89 1695ft 147kts
16-Jan-19 09:07 34.426105 -119.910331 87 964ft 132kts
16-Jan-19 09:08 34.427350 -119.868512 88 283ft 118kts
16-Jan-19 09:09 34.427827 -119.838787 88 17ft 34kts
16-Jan-19 09:10 34.426945 -119.835365 206 17ft 0kts
16-Jan-19 09:11 34.426410 -119.836561 193 17ft 6kts
16-Jan-19 09:12 34.425952 -119.836666 190 17ft 0kts
16-Jan-19 09:13 34.425952 -119.836666 190 17ft 0kts
16-Jan-19 09:14 34.425952 -119.836666 190 17ft 0kts

Navigation Log

Ident Type
Flight plan parsing failed, navigation log unavailable